sensor_id;sensor_type;location;lat;lon;timestamp;P1;durP1;ratioP1;P2;durP2;ratioP2
11524;SDS011;5819;49.648;8.330;2023-07-31T00:02:15;2.28;;;1.52;;
11524;SDS011;5819;49.648;8.330;2023-07-31T00:04:43;7.53;;;2.22;;
11524;SDS011;5819;49.648;8.330;2023-07-31T00:07:11;3.60;;;1.60;;
11524;SDS011;5819;49.648;8.330;2023-07-31T00:09:39;3.88;;;1.83;;
11524;SDS011;5819;49.648;8.330;2023-07-31T00:12:08;4.15;;;1.77;;
11524;SDS011;5819;49.648;8.330;2023-07-31T00:14:36;4.97;;;1.98;;
11524;SDS011;5819;49.648;8.330;2023-07-31T00:17:05;6.20;;;1.80;;
11524;SDS011;5819;49.648;8.330;2023-07-31T00:19:33;5.65;;;1.70;;
11524;SDS011;5819;49.648;8.330;2023-07-31T00:22:02;4.85;;;1.65;;
11524;SDS011;5819;49.648;8.330;2023-07-31T00:24:30;5.05;;;1.95;;
11524;SDS011;5819;49.648;8.330;2023-07-31T00:26:57;4.07;;;2.00;;
11524;SDS011;5819;49.648;8.330;2023-07-31T00:29:27;3.75;;;1.80;;
11524;SDS011;5819;49.648;8.330;2023-07-31T00:31:56;5.70;;;2.00;;
11524;SDS011;5819;49.648;8.330;2023-07-31T00:34:24;5.75;;;2.10;;
11524;SDS011;5819;49.648;8.330;2023-07-31T00:36:52;3.67;;;1.77;;
11524;SDS011;5819;49.648;8.330;2023-07-31T00:39:19;4.90;;;1.90;;
11524;SDS011;5819;49.648;8.330;2023-07-31T00:41:47;3.90;;;1.92;;
11524;SDS011;5819;49.648;8.330;2023-07-31T00:44:16;3.78;;;2.00;;
11524;SDS011;5819;49.648;8.330;2023-07-31T00:46:45;5.93;;;2.92;;
11524;SDS011;5819;49.648;8.330;2023-07-31T00:49:13;4.18;;;1.80;;
11524;SDS011;5819;49.648;8.330;2023-07-31T00:51:41;4.82;;;1.83;;
11524;SDS011;5819;49.648;8.330;2023-07-31T00:54:09;4.03;;;1.60;;
11524;SDS011;5819;49.648;8.330;2023-07-31T00:56:39;5.00;;;2.00;;
11524;SDS011;5819;49.648;8.330;2023-07-31T00:59:11;4.80;;;2.05;;
11524;SDS011;5819;49.648;8.330;2023-07-31T01:01:39;4.65;;;1.77;;
11524;SDS011;5819;49.648;8.330;2023-07-31T01:04:08;5.43;;;2.28;;
11524;SDS011;5819;49.648;8.330;2023-07-31T01:06:38;4.60;;;2.10;;
11524;SDS011;5819;49.648;8.330;2023-07-31T01:09:15;6.22;;;2.15;;
11524;SDS011;5819;49.648;8.330;2023-07-31T01:11:48;5.75;;;2.33;;
11524;SDS011;5819;49.648;8.330;2023-07-31T01:14:20;6.05;;;2.40;;
11524;SDS011;5819;49.648;8.330;2023-07-31T01:16:48;4.45;;;2.00;;
11524;SDS011;5819;49.648;8.330;2023-07-31T01:19:18;6.45;;;2.22;;
11524;SDS011;5819;49.648;8.330;2023-07-31T01:24:53;3.97;;;1.67;;
11524;SDS011;5819;49.648;8.330;2023-07-31T01:27:28;5.78;;;2.00;;
11524;SDS011;5819;49.648;8.330;2023-07-31T01:30:03;6.75;;;2.45;;
11524;SDS011;5819;49.648;8.330;2023-07-31T01:32:38;4.25;;;1.95;;
11524;SDS011;5819;49.648;8.330;2023-07-31T01:35:08;5.88;;;2.38;;
11524;SDS011;5819;49.648;8.330;2023-07-31T01:37:36;4.80;;;2.03;;
11524;SDS011;5819;49.648;8.330;2023-07-31T01:40:05;6.50;;;2.30;;
11524;SDS011;5819;49.648;8.330;2023-07-31T01:42:35;2.95;;;2.00;;
11524;SDS011;5819;49.648;8.330;2023-07-31T01:45:03;6.28;;;2.08;;
11524;SDS011;5819;49.648;8.330;2023-07-31T01:47:32;4.75;;;2.20;;
11524;SDS011;5819;49.648;8.330;2023-07-31T01:50:00;3.85;;;1.98;;
11524;SDS011;5819;49.648;8.330;2023-07-31T01:52:28;4.35;;;1.90;;
11524;SDS011;5819;49.648;8.330;2023-07-31T01:54:56;6.32;;;2.35;;
11524;SDS011;5819;49.648;8.330;2023-07-31T01:57:24;4.28;;;2.08;;
11524;SDS011;5819;49.648;8.330;2023-07-31T01:59:53;6.00;;;2.40;;
11524;SDS011;5819;49.648;8.330;2023-07-31T02:02:21;4.90;;;2.10;;
11524;SDS011;5819;49.648;8.330;2023-07-31T02:04:50;7.43;;;2.45;;
11524;SDS011;5819;49.648;8.330;2023-07-31T02:07:18;3.72;;;2.03;;
11524;SDS011;5819;49.648;8.330;2023-07-31T02:09:46;5.50;;;2.50;;
11524;SDS011;5819;49.648;8.330;2023-07-31T02:12:15;7.43;;;2.40;;
11524;SDS011;5819;49.648;8.330;2023-07-31T02:14:43;5.15;;;2.15;;
11524;SDS011;5819;49.648;8.330;2023-07-31T02:17:12;5.78;;;2.10;;
11524;SDS011;5819;49.648;8.330;2023-07-31T02:19:40;5.97;;;2.08;;
11524;SDS011;5819;49.648;8.330;2023-07-31T02:22:08;6.72;;;2.05;;
11524;SDS011;5819;49.648;8.330;2023-07-31T02:24:36;4.32;;;1.88;;
11524;SDS011;5819;49.648;8.330;2023-07-31T02:27:04;5.63;;;2.30;;
11524;SDS011;5819;49.648;8.330;2023-07-31T02:29:32;4.97;;;2.00;;
11524;SDS011;5819;49.648;8.330;2023-07-31T02:32:00;5.18;;;1.63;;
11524;SDS011;5819;49.648;8.330;2023-07-31T02:34:29;4.70;;;2.30;;
11524;SDS011;5819;49.648;8.330;2023-07-31T02:36:57;4.07;;;1.92;;
11524;SDS011;5819;49.648;8.330;2023-07-31T02:39:25;5.85;;;2.35;;
11524;SDS011;5819;49.648;8.330;2023-07-31T02:41:53;4.63;;;2.20;;
11524;SDS011;5819;49.648;8.330;2023-07-31T02:44:22;7.97;;;2.28;;
11524;SDS011;5819;49.648;8.330;2023-07-31T02:46:50;3.70;;;2.00;;
11524;SDS011;5819;49.648;8.330;2023-07-31T02:49:18;2.92;;;1.98;;
11524;SDS011;5819;49.648;8.330;2023-07-31T02:51:47;6.70;;;2.20;;
11524;SDS011;5819;49.648;8.330;2023-07-31T02:54:15;4.30;;;2.20;;
11524;SDS011;5819;49.648;8.330;2023-07-31T02:56:43;6.05;;;2.20;;
11524;SDS011;5819;49.648;8.330;2023-07-31T02:59:11;5.90;;;2.33;;
11524;SDS011;5819;49.648;8.330;2023-07-31T03:01:39;7.00;;;2.50;;
11524;SDS011;5819;49.648;8.330;2023-07-31T03:04:07;4.65;;;2.10;;
11524;SDS011;5819;49.648;8.330;2023-07-31T03:06:35;4.38;;;2.50;;
11524;SDS011;5819;49.648;8.330;2023-07-31T03:09:05;7.10;;;2.25;;
11524;SDS011;5819;49.648;8.330;2023-07-31T03:11:33;4.05;;;2.05;;
11524;SDS011;5819;49.648;8.330;2023-07-31T03:14:00;3.90;;;1.92;;
11524;SDS011;5819;49.648;8.330;2023-07-31T03:16:28;3.10;;;2.20;;
11524;SDS011;5819;49.648;8.330;2023-07-31T03:18:56;7.22;;;2.67;;
11524;SDS011;5819;49.648;8.330;2023-07-31T03:21:24;6.90;;;2.40;;
11524;SDS011;5819;49.648;8.330;2023-07-31T03:23:51;5.28;;;2.90;;
11524;SDS011;5819;49.648;8.330;2023-07-31T03:26:21;5.82;;;2.45;;
11524;SDS011;5819;49.648;8.330;2023-07-31T03:28:49;4.35;;;2.20;;
11524;SDS011;5819;49.648;8.330;2023-07-31T03:31:17;8.30;;;2.53;;
11524;SDS011;5819;49.648;8.330;2023-07-31T03:33:45;8.23;;;2.83;;
11524;SDS011;5819;49.648;8.330;2023-07-31T03:36:13;4.15;;;2.25;;
11524;SDS011;5819;49.648;8.330;2023-07-31T03:38:41;5.55;;;2.45;;
11524;SDS011;5819;49.648;8.330;2023-07-31T03:41:09;4.80;;;2.35;;
11524;SDS011;5819;49.648;8.330;2023-07-31T03:43:39;6.40;;;2.30;;
11524;SDS011;5819;49.648;8.330;2023-07-31T03:46:07;6.80;;;2.30;;
11524;SDS011;5819;49.648;8.330;2023-07-31T03:48:35;5.03;;;2.58;;
11524;SDS011;5819;49.648;8.330;2023-07-31T03:51:03;3.92;;;2.28;;
11524;SDS011;5819;49.648;8.330;2023-07-31T03:53:30;6.60;;;2.10;;
11524;SDS011;5819;49.648;8.330;2023-07-31T03:55:58;6.10;;;2.50;;
11524;SDS011;5819;49.648;8.330;2023-07-31T03:58:26;4.70;;;2.47;;
11524;SDS011;5819;49.648;8.330;2023-07-31T04:00:56;4.40;;;2.60;;
11524;SDS011;5819;49.648;8.330;2023-07-31T04:03:24;4.95;;;2.88;;
11524;SDS011;5819;49.648;8.330;2023-07-31T04:05:53;3.78;;;2.20;;
11524;SDS011;5819;49.648;8.330;2023-07-31T04:08:21;4.53;;;2.25;;
11524;SDS011;5819;49.648;8.330;2023-07-31T04:10:49;4.90;;;2.40;;
11524;SDS011;5819;49.648;8.330;2023-07-31T04:13:17;8.82;;;2.75;;
11524;SDS011;5819;49.648;8.330;2023-07-31T04:15:47;4.45;;;2.20;;
11524;SDS011;5819;49.648;8.330;2023-07-31T04:18:18;5.20;;;2.40;;
11524;SDS011;5819;49.648;8.330;2023-07-31T04:20:45;13.93;;;11.10;;
11524;SDS011;5819;49.648;8.330;2023-07-31T04:23:13;16.15;;;10.95;;
11524;SDS011;5819;49.648;8.330;2023-07-31T04:25:41;9.52;;;4.28;;
11524;SDS011;5819;49.648;8.330;2023-07-31T04:28:09;6.65;;;3.47;;
11524;SDS011;5819;49.648;8.330;2023-07-31T04:30:38;7.35;;;3.40;;
11524;SDS011;5819;49.648;8.330;2023-07-31T04:33:06;7.65;;;3.13;;
11524;SDS011;5819;49.648;8.330;2023-07-31T04:35:35;4.68;;;2.97;;
11524;SDS011;5819;49.648;8.330;2023-07-31T04:38:03;6.55;;;2.60;;
11524;SDS011;5819;49.648;8.330;2023-07-31T04:40:31;5.50;;;3.15;;
11524;SDS011;5819;49.648;8.330;2023-07-31T04:42:59;4.97;;;2.55;;
11524;SDS011;5819;49.648;8.330;2023-07-31T04:45:27;6.30;;;3.30;;
11524;SDS011;5819;49.648;8.330;2023-07-31T04:47:55;5.82;;;2.60;;
11524;SDS011;5819;49.648;8.330;2023-07-31T04:50:23;5.72;;;2.58;;
11524;SDS011;5819;49.648;8.330;2023-07-31T04:52:52;8.88;;;2.60;;
11524;SDS011;5819;49.648;8.330;2023-07-31T04:55:20;3.85;;;2.28;;
11524;SDS011;5819;49.648;8.330;2023-07-31T04:57:48;7.80;;;2.65;;
11524;SDS011;5819;49.648;8.330;2023-07-31T05:00:16;5.25;;;2.10;;
11524;SDS011;5819;49.648;8.330;2023-07-31T05:02:45;4.53;;;2.40;;
11524;SDS011;5819;49.648;8.330;2023-07-31T05:05:13;7.00;;;2.67;;
11524;SDS011;5819;49.648;8.330;2023-07-31T05:07:41;5.95;;;2.88;;
11524;SDS011;5819;49.648;8.330;2023-07-31T05:10:10;4.38;;;2.33;;
11524;SDS011;5819;49.648;8.330;2023-07-31T05:12:38;8.07;;;2.72;;
11524;SDS011;5819;49.648;8.330;2023-07-31T05:15:06;7.95;;;3.13;;
11524;SDS011;5819;49.648;8.330;2023-07-31T05:17:35;4.43;;;2.25;;
11524;SDS011;5819;49.648;8.330;2023-07-31T05:20:03;5.07;;;2.45;;
11524;SDS011;5819;49.648;8.330;2023-07-31T05:22:31;5.30;;;2.53;;
11524;SDS011;5819;49.648;8.330;2023-07-31T05:24:59;7.22;;;2.47;;
11524;SDS011;5819;49.648;8.330;2023-07-31T05:27:28;5.57;;;2.40;;
11524;SDS011;5819;49.648;8.330;2023-07-31T05:29:56;6.65;;;2.65;;
11524;SDS011;5819;49.648;8.330;2023-07-31T05:32:24;6.50;;;2.50;;
11524;SDS011;5819;49.648;8.330;2023-07-31T05:34:52;6.80;;;2.40;;
11524;SDS011;5819;49.648;8.330;2023-07-31T05:37:20;6.70;;;2.50;;
11524;SDS011;5819;49.648;8.330;2023-07-31T05:39:49;7.30;;;2.70;;
11524;SDS011;5819;49.648;8.330;2023-07-31T05:42:18;6.07;;;2.50;;
11524;SDS011;5819;49.648;8.330;2023-07-31T05:44:47;7.65;;;2.70;;
11524;SDS011;5819;49.648;8.330;2023-07-31T05:47:15;4.40;;;2.40;;
11524;SDS011;5819;49.648;8.330;2023-07-31T05:49:43;9.60;;;2.75;;
11524;SDS011;5819;49.648;8.330;2023-07-31T05:52:11;8.90;;;2.90;;
11524;SDS011;5819;49.648;8.330;2023-07-31T05:54:39;7.93;;;2.50;;
11524;SDS011;5819;49.648;8.330;2023-07-31T05:57:07;7.32;;;2.40;;
11524;SDS011;5819;49.648;8.330;2023-07-31T05:59:35;4.10;;;2.13;;
11524;SDS011;5819;49.648;8.330;2023-07-31T06:02:05;4.72;;;2.50;;
11524;SDS011;5819;49.648;8.330;2023-07-31T06:04:33;4.63;;;2.28;;
11524;SDS011;5819;49.648;8.330;2023-07-31T06:07:01;7.43;;;2.72;;
11524;SDS011;5819;49.648;8.330;2023-07-31T06:09:29;6.07;;;2.67;;
11524;SDS011;5819;49.648;8.330;2023-07-31T06:11:57;5.03;;;2.58;;
11524;SDS011;5819;49.648;8.330;2023-07-31T06:14:25;5.68;;;2.40;;
11524;SDS011;5819;49.648;8.330;2023-07-31T06:16:53;6.18;;;2.60;;
11524;SDS011;5819;49.648;8.330;2023-07-31T06:19:22;7.90;;;2.80;;
11524;SDS011;5819;49.648;8.330;2023-07-31T06:21:50;4.93;;;2.38;;
11524;SDS011;5819;49.648;8.330;2023-07-31T06:24:18;4.70;;;2.28;;
11524;SDS011;5819;49.648;8.330;2023-07-31T06:26:47;6.38;;;2.47;;
11524;SDS011;5819;49.648;8.330;2023-07-31T06:29:15;7.22;;;2.63;;
11524;SDS011;5819;49.648;8.330;2023-07-31T06:31:43;4.57;;;2.53;;
11524;SDS011;5819;49.648;8.330;2023-07-31T06:34:11;6.05;;;2.42;;
11524;SDS011;5819;49.648;8.330;2023-07-31T06:36:40;5.07;;;2.38;;
11524;SDS011;5819;49.648;8.330;2023-07-31T06:39:08;7.25;;;2.70;;
11524;SDS011;5819;49.648;8.330;2023-07-31T06:41:37;5.90;;;2.20;;
11524;SDS011;5819;49.648;8.330;2023-07-31T06:44:09;7.78;;;2.58;;
11524;SDS011;5819;49.648;8.330;2023-07-31T06:46:37;4.35;;;2.30;;
11524;SDS011;5819;49.648;8.330;2023-07-31T06:49:06;6.22;;;2.40;;
11524;SDS011;5819;49.648;8.330;2023-07-31T06:51:34;6.88;;;2.60;;
11524;SDS011;5819;49.648;8.330;2023-07-31T06:54:04;5.78;;;2.38;;
11524;SDS011;5819;49.648;8.330;2023-07-31T06:56:32;4.28;;;2.40;;
11524;SDS011;5819;49.648;8.330;2023-07-31T06:58:59;3.90;;;2.17;;
11524;SDS011;5819;49.648;8.330;2023-07-31T07:01:28;8.88;;;2.92;;
11524;SDS011;5819;49.648;8.330;2023-07-31T07:03:56;5.95;;;2.20;;
11524;SDS011;5819;49.648;8.330;2023-07-31T07:06:23;4.70;;;2.33;;
11524;SDS011;5819;49.648;8.330;2023-07-31T07:08:52;5.60;;;2.70;;
11524;SDS011;5819;49.648;8.330;2023-07-31T07:11:22;5.72;;;2.95;;
11524;SDS011;5819;49.648;8.330;2023-07-31T07:13:52;6.07;;;2.90;;
11524;SDS011;5819;49.648;8.330;2023-07-31T07:16:22;4.95;;;2.70;;
11524;SDS011;5819;49.648;8.330;2023-07-31T07:18:51;5.47;;;2.45;;
11524;SDS011;5819;49.648;8.330;2023-07-31T07:21:30;6.82;;;2.60;;
11524;SDS011;5819;49.648;8.330;2023-07-31T07:24:00;9.68;;;2.60;;
11524;SDS011;5819;49.648;8.330;2023-07-31T07:26:32;6.50;;;2.53;;
11524;SDS011;5819;49.648;8.330;2023-07-31T07:28:59;6.20;;;2.35;;
11524;SDS011;5819;49.648;8.330;2023-07-31T07:31:28;6.63;;;2.40;;
11524;SDS011;5819;49.648;8.330;2023-07-31T07:33:56;6.93;;;2.75;;
11524;SDS011;5819;49.648;8.330;2023-07-31T07:36:24;6.53;;;2.60;;
11524;SDS011;5819;49.648;8.330;2023-07-31T07:38:52;7.07;;;2.50;;
11524;SDS011;5819;49.648;8.330;2023-07-31T07:41:20;3.60;;;2.28;;
11524;SDS011;5819;49.648;8.330;2023-07-31T07:43:49;4.68;;;2.85;;
11524;SDS011;5819;49.648;8.330;2023-07-31T07:46:18;7.00;;;2.95;;
11524;SDS011;5819;49.648;8.330;2023-07-31T07:48:46;5.22;;;2.67;;
11524;SDS011;5819;49.648;8.330;2023-07-31T07:51:13;3.40;;;2.40;;
11524;SDS011;5819;49.648;8.330;2023-07-31T07:53:41;7.88;;;2.60;;
11524;SDS011;5819;49.648;8.330;2023-07-31T07:56:09;5.60;;;2.45;;
11524;SDS011;5819;49.648;8.330;2023-07-31T07:58:37;6.57;;;2.50;;
11524;SDS011;5819;49.648;8.330;2023-07-31T08:01:07;3.45;;;2.15;;
11524;SDS011;5819;49.648;8.330;2023-07-31T08:03:35;7.88;;;3.17;;
11524;SDS011;5819;49.648;8.330;2023-07-31T08:06:02;3.90;;;2.38;;
11524;SDS011;5819;49.648;8.330;2023-07-31T08:08:30;4.57;;;2.58;;
11524;SDS011;5819;49.648;8.330;2023-07-31T08:10:58;5.78;;;3.15;;
11524;SDS011;5819;49.648;8.330;2023-07-31T08:13:26;6.93;;;2.65;;
11524;SDS011;5819;49.648;8.330;2023-07-31T08:15:55;6.07;;;2.15;;
11524;SDS011;5819;49.648;8.330;2023-07-31T08:18:24;5.40;;;2.50;;
11524;SDS011;5819;49.648;8.330;2023-07-31T08:20:52;7.55;;;2.90;;
11524;SDS011;5819;49.648;8.330;2023-07-31T08:23:20;5.32;;;2.45;;
11524;SDS011;5819;49.648;8.330;2023-07-31T08:25:48;6.78;;;2.42;;
11524;SDS011;5819;49.648;8.330;2023-07-31T08:28:17;6.38;;;2.85;;
11524;SDS011;5819;49.648;8.330;2023-07-31T08:30:45;7.70;;;2.95;;
11524;SDS011;5819;49.648;8.330;2023-07-31T08:33:14;5.38;;;2.72;;
11524;SDS011;5819;49.648;8.330;2023-07-31T08:35:43;5.53;;;2.38;;
11524;SDS011;5819;49.648;8.330;2023-07-31T08:38:11;6.15;;;2.45;;
11524;SDS011;5819;49.648;8.330;2023-07-31T08:40:39;5.63;;;2.60;;
11524;SDS011;5819;49.648;8.330;2023-07-31T08:43:08;5.45;;;2.53;;
11524;SDS011;5819;49.648;8.330;2023-07-31T08:45:36;4.28;;;2.15;;
11524;SDS011;5819;49.648;8.330;2023-07-31T08:48:05;5.90;;;2.60;;
11524;SDS011;5819;49.648;8.330;2023-07-31T08:50:33;4.82;;;2.78;;
11524;SDS011;5819;49.648;8.330;2023-07-31T08:53:03;5.75;;;2.45;;
11524;SDS011;5819;49.648;8.330;2023-07-31T08:55:32;6.80;;;3.15;;
11524;SDS011;5819;49.648;8.330;2023-07-31T08:58:00;4.70;;;2.35;;
11524;SDS011;5819;49.648;8.330;2023-07-31T09:00:31;7.30;;;2.50;;
11524;SDS011;5819;49.648;8.330;2023-07-31T09:03:02;8.23;;;2.85;;
11524;SDS011;5819;49.648;8.330;2023-07-31T09:05:36;8.27;;;2.78;;
11524;SDS011;5819;49.648;8.330;2023-07-31T09:08:08;5.90;;;2.55;;
11524;SDS011;5819;49.648;8.330;2023-07-31T09:10:39;6.05;;;2.97;;
11524;SDS011;5819;49.648;8.330;2023-07-31T09:13:08;6.55;;;2.60;;
11524;SDS011;5819;49.648;8.330;2023-07-31T09:15:38;6.72;;;2.90;;
11524;SDS011;5819;49.648;8.330;2023-07-31T09:18:07;4.55;;;2.80;;
11524;SDS011;5819;49.648;8.330;2023-07-31T09:20:35;4.90;;;2.70;;
11524;SDS011;5819;49.648;8.330;2023-07-31T09:23:05;7.57;;;2.88;;
11524;SDS011;5819;49.648;8.330;2023-07-31T09:25:36;7.35;;;3.63;;
11524;SDS011;5819;49.648;8.330;2023-07-31T09:28:05;7.13;;;2.90;;
11524;SDS011;5819;49.648;8.330;2023-07-31T09:30:45;6.45;;;2.58;;
11524;SDS011;5819;49.648;8.330;2023-07-31T09:33:16;7.28;;;3.20;;
11524;SDS011;5819;49.648;8.330;2023-07-31T09:35:45;6.13;;;3.10;;
11524;SDS011;5819;49.648;8.330;2023-07-31T09:38:15;5.65;;;2.70;;
11524;SDS011;5819;49.648;8.330;2023-07-31T09:40:45;5.88;;;2.83;;
11524;SDS011;5819;49.648;8.330;2023-07-31T09:43:16;4.57;;;2.80;;
11524;SDS011;5819;49.648;8.330;2023-07-31T09:45:46;5.55;;;2.70;;
11524;SDS011;5819;49.648;8.330;2023-07-31T09:48:15;8.85;;;3.25;;
11524;SDS011;5819;49.648;8.330;2023-07-31T09:50:44;4.93;;;2.90;;
11524;SDS011;5819;49.648;8.330;2023-07-31T09:53:13;4.47;;;2.90;;
11524;SDS011;5819;49.648;8.330;2023-07-31T09:55:44;6.30;;;2.92;;
11524;SDS011;5819;49.648;8.330;2023-07-31T09:58:12;6.75;;;2.97;;
11524;SDS011;5819;49.648;8.330;2023-07-31T10:00:40;9.43;;;3.15;;
11524;SDS011;5819;49.648;8.330;2023-07-31T10:03:09;5.20;;;3.05;;
11524;SDS011;5819;49.648;8.330;2023-07-31T10:05:39;5.88;;;3.17;;
11524;SDS011;5819;49.648;8.330;2023-07-31T10:08:10;5.38;;;3.03;;
11524;SDS011;5819;49.648;8.330;2023-07-31T10:10:43;6.60;;;3.72;;
11524;SDS011;5819;49.648;8.330;2023-07-31T10:13:13;7.57;;;3.08;;
11524;SDS011;5819;49.648;8.330;2023-07-31T10:15:42;5.50;;;2.97;;
11524;SDS011;5819;49.648;8.330;2023-07-31T10:18:10;7.75;;;3.28;;
11524;SDS011;5819;49.648;8.330;2023-07-31T10:20:39;6.82;;;3.20;;
11524;SDS011;5819;49.648;8.330;2023-07-31T10:23:08;6.30;;;3.10;;
11524;SDS011;5819;49.648;8.330;2023-07-31T10:25:38;6.43;;;3.50;;
11524;SDS011;5819;49.648;8.330;2023-07-31T10:28:07;7.35;;;3.30;;
11524;SDS011;5819;49.648;8.330;2023-07-31T10:30:36;7.68;;;3.25;;
11524;SDS011;5819;49.648;8.330;2023-07-31T10:33:06;6.22;;;3.60;;
11524;SDS011;5819;49.648;8.330;2023-07-31T10:35:34;6.78;;;3.28;;
11524;SDS011;5819;49.648;8.330;2023-07-31T10:38:09;4.90;;;2.78;;
11524;SDS011;5819;49.648;8.330;2023-07-31T10:40:38;7.00;;;3.20;;
11524;SDS011;5819;49.648;8.330;2023-07-31T10:43:08;7.13;;;3.10;;
11524;SDS011;5819;49.648;8.330;2023-07-31T10:45:38;7.13;;;3.20;;
11524;SDS011;5819;49.648;8.330;2023-07-31T10:48:12;5.10;;;3.10;;
11524;SDS011;5819;49.648;8.330;2023-07-31T10:50:46;7.38;;;3.10;;
11524;SDS011;5819;49.648;8.330;2023-07-31T10:53:22;6.40;;;2.90;;
11524;SDS011;5819;49.648;8.330;2023-07-31T10:55:51;6.85;;;2.85;;
11524;SDS011;5819;49.648;8.330;2023-07-31T10:58:20;6.43;;;2.95;;
11524;SDS011;5819;49.648;8.330;2023-07-31T11:00:49;4.85;;;2.70;;
11524;SDS011;5819;49.648;8.330;2023-07-31T11:03:24;5.22;;;2.92;;
11524;SDS011;5819;49.648;8.330;2023-07-31T11:05:59;6.25;;;2.85;;
11524;SDS011;5819;49.648;8.330;2023-07-31T11:08:30;7.22;;;3.17;;
11524;SDS011;5819;49.648;8.330;2023-07-31T11:11:05;5.68;;;2.83;;
11524;SDS011;5819;49.648;8.330;2023-07-31T11:13:40;5.97;;;3.10;;
11524;SDS011;5819;49.648;8.330;2023-07-31T11:16:10;6.03;;;2.70;;
11524;SDS011;5819;49.648;8.330;2023-07-31T11:18:39;7.47;;;3.10;;
11524;SDS011;5819;49.648;8.330;2023-07-31T11:21:08;6.97;;;3.15;;
11524;SDS011;5819;49.648;8.330;2023-07-31T11:23:40;6.28;;;3.00;;
11524;SDS011;5819;49.648;8.330;2023-07-31T11:26:08;4.25;;;2.60;;
11524;SDS011;5819;49.648;8.330;2023-07-31T11:28:37;6.32;;;2.72;;
11524;SDS011;5819;49.648;8.330;2023-07-31T11:31:08;7.70;;;3.22;;
11524;SDS011;5819;49.648;8.330;2023-07-31T11:33:37;6.05;;;3.30;;
11524;SDS011;5819;49.648;8.330;2023-07-31T11:36:05;7.18;;;2.72;;
11524;SDS011;5819;49.648;8.330;2023-07-31T11:38:33;4.70;;;2.70;;
11524;SDS011;5819;49.648;8.330;2023-07-31T11:41:03;7.20;;;3.10;;
11524;SDS011;5819;49.648;8.330;2023-07-31T11:43:32;4.65;;;2.67;;
11524;SDS011;5819;49.648;8.330;2023-07-31T11:46:00;6.53;;;3.25;;
11524;SDS011;5819;49.648;8.330;2023-07-31T11:48:31;4.80;;;2.50;;
11524;SDS011;5819;49.648;8.330;2023-07-31T11:51:02;4.75;;;2.90;;
11524;SDS011;5819;49.648;8.330;2023-07-31T11:53:31;4.72;;;2.90;;
11524;SDS011;5819;49.648;8.330;2023-07-31T11:56:07;7.45;;;2.95;;
11524;SDS011;5819;49.648;8.330;2023-07-31T11:58:38;6.82;;;2.80;;
11524;SDS011;5819;49.648;8.330;2023-07-31T12:01:07;6.75;;;3.17;;
11524;SDS011;5819;49.648;8.330;2023-07-31T12:03:37;4.80;;;2.97;;
11524;SDS011;5819;49.648;8.330;2023-07-31T12:06:07;4.40;;;2.53;;
11524;SDS011;5819;49.648;8.330;2023-07-31T12:08:36;5.05;;;2.85;;
11524;SDS011;5819;49.648;8.330;2023-07-31T12:11:05;6.60;;;3.40;;
11524;SDS011;5819;49.648;8.330;2023-07-31T12:13:33;4.88;;;2.35;;
11524;SDS011;5819;49.648;8.330;2023-07-31T12:16:03;5.20;;;2.70;;
11524;SDS011;5819;49.648;8.330;2023-07-31T12:18:33;3.30;;;2.50;;
11524;SDS011;5819;49.648;8.330;2023-07-31T12:21:04;4.50;;;3.30;;
11524;SDS011;5819;49.648;8.330;2023-07-31T12:23:33;4.18;;;2.55;;
11524;SDS011;5819;49.648;8.330;2023-07-31T12:26:02;5.07;;;2.80;;
11524;SDS011;5819;49.648;8.330;2023-07-31T12:28:34;6.40;;;3.10;;
11524;SDS011;5819;49.648;8.330;2023-07-31T12:31:05;5.75;;;3.10;;
11524;SDS011;5819;49.648;8.330;2023-07-31T12:33:33;5.30;;;3.22;;
11524;SDS011;5819;49.648;8.330;2023-07-31T12:36:06;7.00;;;3.03;;
11524;SDS011;5819;49.648;8.330;2023-07-31T12:38:35;5.65;;;3.10;;
11524;SDS011;5819;49.648;8.330;2023-07-31T12:41:03;5.88;;;2.78;;
11524;SDS011;5819;49.648;8.330;2023-07-31T12:43:32;4.85;;;2.88;;
11524;SDS011;5819;49.648;8.330;2023-07-31T12:46:00;5.45;;;3.00;;
11524;SDS011;5819;49.648;8.330;2023-07-31T12:48:28;6.00;;;2.95;;
11524;SDS011;5819;49.648;8.330;2023-07-31T12:50:56;6.35;;;3.05;;
11524;SDS011;5819;49.648;8.330;2023-07-31T12:53:25;7.82;;;2.75;;
11524;SDS011;5819;49.648;8.330;2023-07-31T12:55:54;9.98;;;3.30;;
11524;SDS011;5819;49.648;8.330;2023-07-31T12:58:22;7.13;;;3.03;;
11524;SDS011;5819;49.648;8.330;2023-07-31T13:00:51;4.65;;;2.90;;
11524;SDS011;5819;49.648;8.330;2023-07-31T13:03:18;3.42;;;2.78;;
11524;SDS011;5819;49.648;8.330;2023-07-31T13:05:47;3.33;;;2.53;;
11524;SDS011;5819;49.648;8.330;2023-07-31T13:08:15;4.78;;;3.08;;
11524;SDS011;5819;49.648;8.330;2023-07-31T13:10:45;7.47;;;2.90;;
11524;SDS011;5819;49.648;8.330;2023-07-31T13:13:13;4.28;;;2.70;;
11524;SDS011;5819;49.648;8.330;2023-07-31T13:15:43;5.07;;;2.60;;
11524;SDS011;5819;49.648;8.330;2023-07-31T13:18:12;4.57;;;3.00;;
11524;SDS011;5819;49.648;8.330;2023-07-31T13:20:40;4.10;;;2.70;;
11524;SDS011;5819;49.648;8.330;2023-07-31T13:23:08;5.25;;;3.10;;
11524;SDS011;5819;49.648;8.330;2023-07-31T13:25:36;5.60;;;3.03;;
11524;SDS011;5819;49.648;8.330;2023-07-31T13:28:05;6.85;;;2.92;;
11524;SDS011;5819;49.648;8.330;2023-07-31T13:30:33;7.45;;;2.72;;
11524;SDS011;5819;49.648;8.330;2023-07-31T13:33:01;5.60;;;2.80;;
11524;SDS011;5819;49.648;8.330;2023-07-31T13:35:29;6.22;;;2.92;;
11524;SDS011;5819;49.648;8.330;2023-07-31T13:37:58;4.90;;;2.97;;
11524;SDS011;5819;49.648;8.330;2023-07-31T13:40:25;3.25;;;2.60;;
11524;SDS011;5819;49.648;8.330;2023-07-31T13:42:53;5.55;;;3.58;;
11524;SDS011;5819;49.648;8.330;2023-07-31T13:45:23;6.88;;;3.00;;
11524;SDS011;5819;49.648;8.330;2023-07-31T13:47:51;5.57;;;3.50;;
11524;SDS011;5819;49.648;8.330;2023-07-31T13:50:19;4.85;;;2.70;;
11524;SDS011;5819;49.648;8.330;2023-07-31T13:52:49;7.60;;;3.03;;
11524;SDS011;5819;49.648;8.330;2023-07-31T13:55:18;7.22;;;2.90;;
11524;SDS011;5819;49.648;8.330;2023-07-31T13:57:45;5.15;;;3.10;;
11524;SDS011;5819;49.648;8.330;2023-07-31T14:00:15;5.78;;;2.78;;
11524;SDS011;5819;49.648;8.330;2023-07-31T14:02:44;4.88;;;2.72;;
11524;SDS011;5819;49.648;8.330;2023-07-31T14:05:13;4.90;;;2.80;;
11524;SDS011;5819;49.648;8.330;2023-07-31T14:07:40;7.95;;;3.42;;
11524;SDS011;5819;49.648;8.330;2023-07-31T14:10:09;4.35;;;2.55;;
11524;SDS011;5819;49.648;8.330;2023-07-31T14:12:36;4.50;;;2.58;;
11524;SDS011;5819;49.648;8.330;2023-07-31T14:15:09;5.38;;;3.00;;
11524;SDS011;5819;49.648;8.330;2023-07-31T14:17:37;6.32;;;3.05;;
11524;SDS011;5819;49.648;8.330;2023-07-31T14:20:08;5.32;;;2.75;;
11524;SDS011;5819;49.648;8.330;2023-07-31T14:22:37;5.82;;;3.38;;
11524;SDS011;5819;49.648;8.330;2023-07-31T14:25:05;6.00;;;3.35;;
11524;SDS011;5819;49.648;8.330;2023-07-31T14:27:33;5.15;;;2.88;;
11524;SDS011;5819;49.648;8.330;2023-07-31T14:30:01;5.15;;;2.90;;
11524;SDS011;5819;49.648;8.330;2023-07-31T14:32:29;7.95;;;3.20;;
11524;SDS011;5819;49.648;8.330;2023-07-31T14:34:58;6.63;;;3.22;;
11524;SDS011;5819;49.648;8.330;2023-07-31T14:37:27;5.95;;;2.97;;
11524;SDS011;5819;49.648;8.330;2023-07-31T14:40:04;4.57;;;3.00;;
11524;SDS011;5819;49.648;8.330;2023-07-31T14:42:33;5.53;;;2.78;;
11524;SDS011;5819;49.648;8.330;2023-07-31T14:45:02;5.20;;;3.08;;
11524;SDS011;5819;49.648;8.330;2023-07-31T14:47:30;7.43;;;2.95;;
11524;SDS011;5819;49.648;8.330;2023-07-31T14:49:58;4.47;;;2.80;;
11524;SDS011;5819;49.648;8.330;2023-07-31T14:52:28;4.07;;;2.70;;
11524;SDS011;5819;49.648;8.330;2023-07-31T14:54:56;4.88;;;3.22;;
11524;SDS011;5819;49.648;8.330;2023-07-31T14:57:24;4.97;;;2.58;;
11524;SDS011;5819;49.648;8.330;2023-07-31T14:59:53;3.42;;;2.35;;
11524;SDS011;5819;49.648;8.330;2023-07-31T15:02:21;6.13;;;2.20;;
11524;SDS011;5819;49.648;8.330;2023-07-31T15:04:48;3.90;;;2.17;;
11524;SDS011;5819;49.648;8.330;2023-07-31T15:07:16;2.67;;;2.00;;
11524;SDS011;5819;49.648;8.330;2023-07-31T15:09:45;2.78;;;1.92;;
11524;SDS011;5819;49.648;8.330;2023-07-31T15:12:13;3.78;;;2.20;;
11524;SDS011;5819;49.648;8.330;2023-07-31T15:14:41;6.32;;;2.65;;